sensor_id;sensor_type;location;lat;lon;timestamp;P1;durP1;ratioP1;P2;durP2;ratioP2
22768;SDS011;13001;51.968;5.918;2023-05-19T00:00:28;410.33;;;383.17;;
22768;SDS011;13001;51.968;5.918;2023-05-19T00:02:56;446.73;;;416.00;;
22768;SDS011;13001;51.968;5.918;2023-05-19T00:05:25;414.90;;;386.70;;
22768;SDS011;13001;51.968;5.918;2023-05-19T00:07:53;419.33;;;390.27;;
22768;SDS011;13001;51.968;5.918;2023-05-19T00:10:22;424.60;;;395.13;;
22768;SDS011;13001;51.968;5.918;2023-05-19T00:12:49;406.67;;;379.57;;
22768;SDS011;13001;51.968;5.918;2023-05-19T00:15:17;426.47;;;397.67;;
22768;SDS011;13001;51.968;5.918;2023-05-19T00:17:44;417.73;;;388.83;;
22768;SDS011;13001;51.968;5.918;2023-05-19T00:20:12;433.57;;;403.90;;
22768;SDS011;13001;51.968;5.918;2023-05-19T00:22:39;427.97;;;398.57;;
22768;SDS011;13001;51.968;5.918;2023-05-19T00:25:08;411.57;;;383.10;;
22768;SDS011;13001;51.968;5.918;2023-05-19T00:27:35;401.27;;;373.87;;
22768;SDS011;13001;51.968;5.918;2023-05-19T00:30:03;401.87;;;373.97;;
22768;SDS011;13001;51.968;5.918;2023-05-19T00:32:30;397.23;;;369.70;;
22768;SDS011;13001;51.968;5.918;2023-05-19T00:34:58;382.77;;;356.33;;
22768;SDS011;13001;51.968;5.918;2023-05-19T00:37:25;386.53;;;360.43;;
22768;SDS011;13001;51.968;5.918;2023-05-19T00:39:52;380.90;;;354.83;;
22768;SDS011;13001;51.968;5.918;2023-05-19T00:42:20;396.37;;;369.17;;
22768;SDS011;13001;51.968;5.918;2023-05-19T00:44:47;385.63;;;358.80;;
22768;SDS011;13001;51.968;5.918;2023-05-19T00:47:14;384.20;;;357.80;;
22768;SDS011;13001;51.968;5.918;2023-05-19T00:49:41;364.37;;;339.70;;
22768;SDS011;13001;51.968;5.918;2023-05-19T00:52:09;374.17;;;348.50;;
22768;SDS011;13001;51.968;5.918;2023-05-19T00:54:36;356.77;;;332.63;;
22768;SDS011;13001;51.968;5.918;2023-05-19T00:57:03;352.17;;;327.90;;
22768;SDS011;13001;51.968;5.918;2023-05-19T00:59:31;342.17;;;319.17;;
22768;SDS011;13001;51.968;5.918;2023-05-19T01:01:58;341.00;;;318.27;;
22768;SDS011;13001;51.968;5.918;2023-05-19T01:04:27;352.33;;;328.90;;
22768;SDS011;13001;51.968;5.918;2023-05-19T01:06:56;349.00;;;326.13;;
22768;SDS011;13001;51.968;5.918;2023-05-19T01:09:24;344.83;;;321.73;;
22768;SDS011;13001;51.968;5.918;2023-05-19T01:11:51;317.90;;;297.50;;
22768;SDS011;13001;51.968;5.918;2023-05-19T01:14:18;337.57;;;315.77;;
22768;SDS011;13001;51.968;5.918;2023-05-19T01:16:52;304.73;;;284.93;;
22768;SDS011;13001;51.968;5.918;2023-05-19T01:19:36;284.27;;;266.17;;
22768;SDS011;13001;51.968;5.918;2023-05-19T01:24:35;304.60;;;284.93;;
22768;SDS011;13001;51.968;5.918;2023-05-19T01:32:23;330.87;;;309.70;;
22768;SDS011;13001;51.968;5.918;2023-05-19T01:34:51;343.37;;;321.27;;
22768;SDS011;13001;51.968;5.918;2023-05-19T01:37:19;344.77;;;322.33;;
22768;SDS011;13001;51.968;5.918;2023-05-19T01:39:48;323.80;;;302.97;;
22768;SDS011;13001;51.968;5.918;2023-05-19T01:42:16;309.97;;;290.40;;
22768;SDS011;13001;51.968;5.918;2023-05-19T01:44:43;296.10;;;277.53;;
22768;SDS011;13001;51.968;5.918;2023-05-19T01:47:11;291.57;;;272.93;;
22768;SDS011;13001;51.968;5.918;2023-05-19T01:49:38;289.23;;;270.63;;
22768;SDS011;13001;51.968;5.918;2023-05-19T01:52:06;274.97;;;257.83;;
22768;SDS011;13001;51.968;5.918;2023-05-19T01:54:33;294.63;;;276.13;;
22768;SDS011;13001;51.968;5.918;2023-05-19T01:57:14;323.63;;;303.10;;
22768;SDS011;13001;51.968;5.918;2023-05-19T01:59:46;303.83;;;284.50;;
22768;SDS011;13001;51.968;5.918;2023-05-19T02:02:18;307.00;;;287.47;;
22768;SDS011;13001;51.968;5.918;2023-05-19T02:04:42;322.77;;;302.10;;
22768;SDS011;13001;51.968;5.918;2023-05-19T02:12:24;328.77;;;307.97;;
22768;SDS011;13001;51.968;5.918;2023-05-19T02:14:53;318.93;;;298.63;;
22768;SDS011;13001;51.968;5.918;2023-05-19T02:17:20;329.73;;;309.00;;
22768;SDS011;13001;51.968;5.918;2023-05-19T02:19:49;338.30;;;316.93;;
22768;SDS011;13001;51.968;5.918;2023-05-19T02:22:16;350.37;;;328.33;;
22768;SDS011;13001;51.968;5.918;2023-05-19T02:24:43;349.07;;;326.80;;
22768;SDS011;13001;51.968;5.918;2023-05-19T02:27:12;340.47;;;318.77;;
22768;SDS011;13001;51.968;5.918;2023-05-19T02:29:40;334.73;;;312.60;;
22768;SDS011;13001;51.968;5.918;2023-05-19T02:32:07;328.43;;;307.10;;
22768;SDS011;13001;51.968;5.918;2023-05-19T02:34:34;338.53;;;317.07;;
22768;SDS011;13001;51.968;5.918;2023-05-19T02:37:01;335.23;;;313.67;;
22768;SDS011;13001;51.968;5.918;2023-05-19T02:39:29;326.30;;;305.40;;
22768;SDS011;13001;51.968;5.918;2023-05-19T02:41:58;330.97;;;309.67;;
22768;SDS011;13001;51.968;5.918;2023-05-19T02:44:25;334.57;;;313.17;;
22768;SDS011;13001;51.968;5.918;2023-05-19T02:46:52;334.13;;;312.70;;
22768;SDS011;13001;51.968;5.918;2023-05-19T02:49:20;332.63;;;311.47;;
22768;SDS011;13001;51.968;5.918;2023-05-19T02:51:47;354.70;;;331.30;;
22768;SDS011;13001;51.968;5.918;2023-05-19T02:54:14;370.60;;;345.93;;
22768;SDS011;13001;51.968;5.918;2023-05-19T02:56:41;323.67;;;302.87;;
22768;SDS011;13001;51.968;5.918;2023-05-19T02:59:09;328.70;;;307.63;;
22768;SDS011;13001;51.968;5.918;2023-05-19T03:01:36;328.07;;;307.53;;
22768;SDS011;13001;51.968;5.918;2023-05-19T03:04:05;349.97;;;327.57;;
22768;SDS011;13001;51.968;5.918;2023-05-19T03:06:32;317.37;;;297.23;;
22768;SDS011;13001;51.968;5.918;2023-05-19T03:08:59;326.97;;;305.67;;
22768;SDS011;13001;51.968;5.918;2023-05-19T03:11:27;318.87;;;298.17;;
22768;SDS011;13001;51.968;5.918;2023-05-19T03:13:56;324.00;;;303.03;;
22768;SDS011;13001;51.968;5.918;2023-05-19T03:16:23;319.67;;;299.60;;
22768;SDS011;13001;51.968;5.918;2023-05-19T03:18:50;325.03;;;304.70;;
22768;SDS011;13001;51.968;5.918;2023-05-19T03:21:18;311.13;;;291.73;;
22768;SDS011;13001;51.968;5.918;2023-05-19T03:23:45;334.87;;;314.13;;
22768;SDS011;13001;51.968;5.918;2023-05-19T03:26:12;317.70;;;298.10;;
22768;SDS011;13001;51.968;5.918;2023-05-19T03:28:39;317.07;;;297.27;;
22768;SDS011;13001;51.968;5.918;2023-05-19T03:31:07;326.27;;;306.10;;
22768;SDS011;13001;51.968;5.918;2023-05-19T03:33:34;344.90;;;323.47;;
22768;SDS011;13001;51.968;5.918;2023-05-19T03:36:01;330.43;;;310.07;;
22768;SDS011;13001;51.968;5.918;2023-05-19T03:38:29;314.83;;;294.97;;
22768;SDS011;13001;51.968;5.918;2023-05-19T03:40:56;314.07;;;294.70;;
22768;SDS011;13001;51.968;5.918;2023-05-19T03:43:23;323.67;;;303.53;;
22768;SDS011;13001;51.968;5.918;2023-05-19T03:45:51;327.83;;;307.40;;
22768;SDS011;13001;51.968;5.918;2023-05-19T03:48:18;346.97;;;325.50;;
22768;SDS011;13001;51.968;5.918;2023-05-19T03:50:46;336.07;;;315.63;;
22768;SDS011;13001;51.968;5.918;2023-05-19T03:53:13;334.20;;;313.67;;
22768;SDS011;13001;51.968;5.918;2023-05-19T03:55:41;329.77;;;308.90;;
22768;SDS011;13001;51.968;5.918;2023-05-19T03:58:09;308.60;;;289.60;;
22768;SDS011;13001;51.968;5.918;2023-05-19T04:00:38;297.53;;;279.03;;
22768;SDS011;13001;51.968;5.918;2023-05-19T04:03:06;284.87;;;267.50;;
22768;SDS011;13001;51.968;5.918;2023-05-19T04:05:33;294.60;;;276.20;;
22768;SDS011;13001;51.968;5.918;2023-05-19T04:08:00;274.33;;;257.40;;
22768;SDS011;13001;51.968;5.918;2023-05-19T04:10:28;228.47;;;214.50;;
22768;SDS011;13001;51.968;5.918;2023-05-19T04:12:55;215.67;;;202.57;;
22768;SDS011;13001;51.968;5.918;2023-05-19T04:15:22;215.27;;;201.83;;
22768;SDS011;13001;51.968;5.918;2023-05-19T04:17:49;329.70;;;308.37;;
22768;SDS011;13001;51.968;5.918;2023-05-19T04:20:17;322.43;;;302.87;;
22768;SDS011;13001;51.968;5.918;2023-05-19T04:22:44;290.70;;;272.97;;
22768;SDS011;13001;51.968;5.918;2023-05-19T04:25:11;274.13;;;257.63;;
22768;SDS011;13001;51.968;5.918;2023-05-19T04:27:38;279.97;;;262.53;;
22768;SDS011;13001;51.968;5.918;2023-05-19T04:30:06;259.27;;;243.27;;
22768;SDS011;13001;51.968;5.918;2023-05-19T04:32:33;277.03;;;259.57;;
22768;SDS011;13001;51.968;5.918;2023-05-19T04:35:02;300.77;;;282.23;;
22768;SDS011;13001;51.968;5.918;2023-05-19T04:37:30;295.93;;;278.10;;
22768;SDS011;13001;51.968;5.918;2023-05-19T04:39:57;306.83;;;286.63;;
22768;SDS011;13001;51.968;5.918;2023-05-19T04:42:24;339.03;;;316.47;;
22768;SDS011;13001;51.968;5.918;2023-05-19T04:44:53;340.83;;;318.43;;
22768;SDS011;13001;51.968;5.918;2023-05-19T04:47:22;363.10;;;342.07;;
22768;SDS011;13001;51.968;5.918;2023-05-19T04:49:51;392.23;;;369.53;;
22768;SDS011;13001;51.968;5.918;2023-05-19T04:52:20;395.40;;;372.50;;
22768;SDS011;13001;51.968;5.918;2023-05-19T04:54:47;343.03;;;323.10;;
22768;SDS011;13001;51.968;5.918;2023-05-19T04:57:15;291.47;;;273.90;;
22768;SDS011;13001;51.968;5.918;2023-05-19T04:59:42;348.60;;;328.20;;
22768;SDS011;13001;51.968;5.918;2023-05-19T05:02:09;495.30;;;465.97;;
22768;SDS011;13001;51.968;5.918;2023-05-19T05:04:37;390.93;;;366.70;;
22768;SDS011;13001;51.968;5.918;2023-05-19T05:07:05;318.60;;;298.60;;
22768;SDS011;13001;51.968;5.918;2023-05-19T05:09:33;299.53;;;279.00;;
22768;SDS011;13001;51.968;5.918;2023-05-19T05:12:01;224.93;;;209.77;;
22768;SDS011;13001;51.968;5.918;2023-05-19T05:14:28;191.97;;;179.43;;
22768;SDS011;13001;51.968;5.918;2023-05-19T05:16:55;219.17;;;205.60;;
22768;SDS011;13001;51.968;5.918;2023-05-19T05:19:23;221.30;;;208.13;;
22768;SDS011;13001;51.968;5.918;2023-05-19T05:21:50;223.10;;;209.40;;
22768;SDS011;13001;51.968;5.918;2023-05-19T05:24:18;198.17;;;186.30;;
22768;SDS011;13001;51.968;5.918;2023-05-19T05:26:45;183.73;;;172.93;;
22768;SDS011;13001;51.968;5.918;2023-05-19T05:29:12;199.10;;;186.57;;
22768;SDS011;13001;51.968;5.918;2023-05-19T05:31:40;245.73;;;229.90;;
22768;SDS011;13001;51.968;5.918;2023-05-19T05:34:07;221.37;;;207.43;;
22768;SDS011;13001;51.968;5.918;2023-05-19T05:36:34;171.03;;;160.10;;
22768;SDS011;13001;51.968;5.918;2023-05-19T05:39:01;182.17;;;171.00;;
22768;SDS011;13001;51.968;5.918;2023-05-19T05:41:30;189.07;;;176.73;;
22768;SDS011;13001;51.968;5.918;2023-05-19T05:44:00;285.90;;;268.17;;
22768;SDS011;13001;51.968;5.918;2023-05-19T05:48:54;285.20;;;268.33;;
22768;SDS011;13001;51.968;5.918;2023-05-19T11:16:54;279.40;;;263.30;;
22768;SDS011;13001;51.968;5.918;2023-05-19T11:19:30;300.32;;;282.87;;
22768;SDS011;13001;51.968;5.918;2023-05-19T11:22:07;248.43;;;233.43;;
22768;SDS011;13001;51.968;5.918;2023-05-19T11:24:36;219.05;;;206.05;;
22768;SDS011;13001;51.968;5.918;2023-05-19T11:27:23;158.63;;;149.60;;
22768;SDS011;13001;51.968;5.918;2023-05-19T11:29:53;159.00;;;149.77;;
22768;SDS011;13001;51.968;5.918;2023-05-19T11:32:24;191.88;;;180.78;;
22768;SDS011;13001;51.968;5.918;2023-05-19T11:34:50;207.90;;;195.57;;
22768;SDS011;13001;51.968;5.918;2023-05-19T11:37:19;159.17;;;150.13;;
22768;SDS011;13001;51.968;5.918;2023-05-19T11:39:46;181.17;;;170.93;;
22768;SDS011;13001;51.968;5.918;2023-05-19T11:42:13;178.10;;;168.07;;
22768;SDS011;13001;51.968;5.918;2023-05-19T11:44:41;200.13;;;188.33;;
22768;SDS011;13001;51.968;5.918;2023-05-19T11:47:14;176.82;;;166.75;;
22768;SDS011;13001;51.968;5.918;2023-05-19T11:49:47;175.03;;;164.85;;
22768;SDS011;13001;51.968;5.918;2023-05-19T11:52:11;172.68;;;162.47;;
22768;SDS011;13001;51.968;5.918;2023-05-19T11:54:39;179.63;;;169.43;;
22768;SDS011;13001;51.968;5.918;2023-05-19T11:57:08;174.40;;;164.40;;
22768;SDS011;13001;51.968;5.918;2023-05-19T11:59:36;177.62;;;167.32;;
22768;SDS011;13001;51.968;5.918;2023-05-19T12:04:40;196.87;;;185.20;;
22768;SDS011;13001;51.968;5.918;2023-05-19T12:07:15;185.07;;;174.23;;
22768;SDS011;13001;51.968;5.918;2023-05-19T12:09:38;254.25;;;239.20;;
22768;SDS011;13001;51.968;5.918;2023-05-19T12:12:06;187.27;;;176.27;;
22768;SDS011;13001;51.968;5.918;2023-05-19T12:14:33;242.87;;;228.20;;
22768;SDS011;13001;51.968;5.918;2023-05-19T12:17:10;224.65;;;211.18;;
22768;SDS011;13001;51.968;5.918;2023-05-19T12:19:39;306.63;;;288.95;;
22768;SDS011;13001;51.968;5.918;2023-05-19T12:22:06;255.20;;;240.18;;
22768;SDS011;13001;51.968;5.918;2023-05-19T12:24:35;228.52;;;215.18;;
22768;SDS011;13001;51.968;5.918;2023-05-19T12:29:51;212.68;;;199.77;;
22768;SDS011;13001;51.968;5.918;2023-05-19T12:32:22;223.68;;;210.35;;
22768;SDS011;13001;51.968;5.918;2023-05-19T12:34:47;238.47;;;224.35;;
22768;SDS011;13001;51.968;5.918;2023-05-19T12:37:15;186.25;;;175.12;;
22768;SDS011;13001;51.968;5.918;2023-05-19T12:39:43;291.77;;;273.68;;
22768;SDS011;13001;51.968;5.918;2023-05-19T12:42:11;239.50;;;225.37;;
22768;SDS011;13001;51.968;5.918;2023-05-19T12:44:50;304.25;;;286.40;;
22768;SDS011;13001;51.968;5.918;2023-05-19T12:47:14;210.93;;;198.02;;
22768;SDS011;13001;51.968;5.918;2023-05-19T12:49:54;255.87;;;240.05;;
22768;SDS011;13001;51.968;5.918;2023-05-19T12:52:24;200.90;;;189.00;;
22768;SDS011;13001;51.968;5.918;2023-05-19T12:54:58;235.73;;;221.77;;
22768;SDS011;13001;51.968;5.918;2023-05-19T12:57:26;328.92;;;309.18;;
22768;SDS011;13001;51.968;5.918;2023-05-19T13:00:03;340.65;;;319.95;;
22768;SDS011;13001;51.968;5.918;2023-05-19T13:02:30;314.75;;;296.02;;
22768;SDS011;13001;51.968;5.918;2023-05-19T13:04:59;267.75;;;251.62;;
22768;SDS011;13001;51.968;5.918;2023-05-19T13:07:26;309.92;;;291.93;;
22768;SDS011;13001;51.968;5.918;2023-05-19T13:09:53;274.70;;;259.05;;
22768;SDS011;13001;51.968;5.918;2023-05-19T13:12:21;310.02;;;291.35;;
22768;SDS011;13001;51.968;5.918;2023-05-19T13:14:49;265.37;;;249.88;;
22768;SDS011;13001;51.968;5.918;2023-05-19T13:17:18;320.57;;;302.02;;
22768;SDS011;13001;51.968;5.918;2023-05-19T13:19:45;283.57;;;267.25;;
22768;SDS011;13001;51.968;5.918;2023-05-19T13:22:13;297.35;;;280.40;;
22768;SDS011;13001;51.968;5.918;2023-05-19T13:24:40;320.17;;;301.18;;
22768;SDS011;13001;51.968;5.918;2023-05-19T13:27:07;305.90;;;288.10;;
22768;SDS011;13001;51.968;5.918;2023-05-19T13:29:34;279.57;;;263.00;;
22768;SDS011;13001;51.968;5.918;2023-05-19T13:32:02;288.57;;;271.70;;
22768;SDS011;13001;51.968;5.918;2023-05-19T13:34:29;308.00;;;290.38;;
22768;SDS011;13001;51.968;5.918;2023-05-19T13:36:56;279.85;;;262.72;;
22768;SDS011;13001;51.968;5.918;2023-05-19T13:39:23;245.45;;;231.23;;
22768;SDS011;13001;51.968;5.918;2023-05-19T13:41:51;278.37;;;262.63;;
22768;SDS011;13001;51.968;5.918;2023-05-19T13:44:18;279.93;;;263.55;;
22768;SDS011;13001;51.968;5.918;2023-05-19T13:46:45;306.02;;;287.38;;
22768;SDS011;13001;51.968;5.918;2023-05-19T13:49:12;300.25;;;282.98;;
22768;SDS011;13001;51.968;5.918;2023-05-19T13:51:41;271.32;;;255.98;;
22768;SDS011;13001;51.968;5.918;2023-05-19T13:54:09;245.35;;;231.10;;
22768;SDS011;13001;51.968;5.918;2023-05-19T13:56:36;335.52;;;313.98;;
22768;SDS011;13001;51.968;5.918;2023-05-19T13:59:03;295.23;;;278.18;;
22768;SDS011;13001;51.968;5.918;2023-05-19T14:01:31;297.70;;;280.18;;
22768;SDS011;13001;51.968;5.918;2023-05-19T14:03:58;300.68;;;282.62;;
22768;SDS011;13001;51.968;5.918;2023-05-19T14:06:25;278.92;;;262.90;;
22768;SDS011;13001;51.968;5.918;2023-05-19T14:08:53;290.10;;;273.43;;
22768;SDS011;13001;51.968;5.918;2023-05-19T14:11:20;276.20;;;260.43;;
22768;SDS011;13001;51.968;5.918;2023-05-19T14:13:47;301.02;;;283.80;;
22768;SDS011;13001;51.968;5.918;2023-05-19T14:16:16;295.20;;;278.07;;
22768;SDS011;13001;51.968;5.918;2023-05-19T14:18:43;295.35;;;277.60;;
22768;SDS011;13001;51.968;5.918;2023-05-19T14:21:10;301.10;;;283.98;;
22768;SDS011;13001;51.968;5.918;2023-05-19T14:23:38;308.82;;;291.15;;
22768;SDS011;13001;51.968;5.918;2023-05-19T14:26:05;329.15;;;309.30;;
22768;SDS011;13001;51.968;5.918;2023-05-19T14:28:32;223.28;;;209.80;;
22768;SDS011;13001;51.968;5.918;2023-05-19T14:30:59;295.88;;;277.70;;
22768;SDS011;13001;51.968;5.918;2023-05-19T14:33:27;273.70;;;256.55;;
22768;SDS011;13001;51.968;5.918;2023-05-19T14:35:54;309.27;;;290.62;;
22768;SDS011;13001;51.968;5.918;2023-05-19T14:38:23;281.40;;;265.35;;
22768;SDS011;13001;51.968;5.918;2023-05-19T14:40:50;277.05;;;260.90;;
22768;SDS011;13001;51.968;5.918;2023-05-19T14:43:17;291.45;;;274.58;;
22768;SDS011;13001;51.968;5.918;2023-05-19T14:45:46;386.35;;;359.10;;
22768;SDS011;13001;51.968;5.918;2023-05-19T14:48:13;271.43;;;255.25;;
22768;SDS011;13001;51.968;5.918;2023-05-19T14:50:41;275.48;;;259.95;;
22768;SDS011;13001;51.968;5.918;2023-05-19T14:53:09;285.68;;;269.07;;
22768;SDS011;13001;51.968;5.918;2023-05-19T14:55:36;275.27;;;259.67;;
22768;SDS011;13001;51.968;5.918;2023-05-19T14:58:04;264.25;;;248.82;;
22768;SDS011;13001;51.968;5.918;2023-05-19T15:00:31;308.17;;;289.57;;
22768;SDS011;13001;51.968;5.918;2023-05-19T15:02:58;317.35;;;297.35;;
22768;SDS011;13001;51.968;5.918;2023-05-19T15:05:25;280.18;;;264.25;;
22768;SDS011;13001;51.968;5.918;2023-05-19T15:07:53;255.25;;;240.57;;
22768;SDS011;13001;51.968;5.918;2023-05-19T15:10:20;248.90;;;234.27;;
22768;SDS011;13001;51.968;5.918;2023-05-19T15:12:47;255.62;;;240.82;;
22768;SDS011;13001;51.968;5.918;2023-05-19T15:15:15;242.50;;;228.62;;
22768;SDS011;13001;51.968;5.918;2023-05-19T15:17:42;257.57;;;243.02;;
22768;SDS011;13001;51.968;5.918;2023-05-19T15:20:11;329.52;;;308.00;;
22768;SDS011;13001;51.968;5.918;2023-05-19T15:22:38;288.80;;;269.80;;
22768;SDS011;13001;51.968;5.918;2023-05-19T15:25:06;234.92;;;220.55;;
22768;SDS011;13001;51.968;5.918;2023-05-19T15:27:34;231.57;;;217.72;;
22768;SDS011;13001;51.968;5.918;2023-05-19T15:30:04;274.35;;;257.90;;
22768;SDS011;13001;51.968;5.918;2023-05-19T15:32:33;295.77;;;277.93;;
22768;SDS011;13001;51.968;5.918;2023-05-19T15:35:01;376.15;;;350.48;;
22768;SDS011;13001;51.968;5.918;2023-05-19T15:37:28;282.07;;;265.87;;
22768;SDS011;13001;51.968;5.918;2023-05-19T15:39:55;266.10;;;250.45;;
22768;SDS011;13001;51.968;5.918;2023-05-19T15:42:22;180.25;;;169.50;;
22768;SDS011;13001;51.968;5.918;2023-05-19T15:44:50;192.60;;;181.10;;
22768;SDS011;13001;51.968;5.918;2023-05-19T15:47:17;235.97;;;221.60;;
22768;SDS011;13001;51.968;5.918;2023-05-19T15:49:44;336.27;;;312.20;;
22768;SDS011;13001;51.968;5.918;2023-05-19T15:52:12;252.65;;;238.25;;
22768;SDS011;13001;51.968;5.918;2023-05-19T15:54:39;231.17;;;217.97;;
22768;SDS011;13001;51.968;5.918;2023-05-19T15:57:06;220.67;;;207.87;;
22768;SDS011;13001;51.968;5.918;2023-05-19T15:59:33;261.80;;;246.68;;
22768;SDS011;13001;51.968;5.918;2023-05-19T16:02:01;255.22;;;240.72;;
22768;SDS011;13001;51.968;5.918;2023-05-19T16:04:28;257.10;;;242.50;;
22768;SDS011;13001;51.968;5.918;2023-05-19T16:06:55;187.62;;;176.50;;
22768;SDS011;13001;51.968;5.918;2023-05-19T16:09:22;233.32;;;220.10;;
22768;SDS011;13001;51.968;5.918;2023-05-19T16:11:50;230.47;;;216.93;;
22768;SDS011;13001;51.968;5.918;2023-05-19T16:14:17;218.00;;;205.35;;
22768;SDS011;13001;51.968;5.918;2023-05-19T16:16:44;247.90;;;233.70;;
22768;SDS011;13001;51.968;5.918;2023-05-19T16:19:11;252.13;;;237.32;;
22768;SDS011;13001;51.968;5.918;2023-05-19T16:21:39;311.20;;;291.98;;
22768;SDS011;13001;51.968;5.918;2023-05-19T16:24:06;188.97;;;178.05;;
22768;SDS011;13001;51.968;5.918;2023-05-19T16:26:33;226.20;;;213.20;;
22768;SDS011;13001;51.968;5.918;2023-05-19T16:29:00;220.40;;;207.57;;
22768;SDS011;13001;51.968;5.918;2023-05-19T16:31:28;217.70;;;205.12;;
22768;SDS011;13001;51.968;5.918;2023-05-19T16:33:56;194.65;;;183.15;;
22768;SDS011;13001;51.968;5.918;2023-05-19T16:36:23;251.37;;;237.10;;
22768;SDS011;13001;51.968;5.918;2023-05-19T16:38:50;255.45;;;240.15;;
22768;SDS011;13001;51.968;5.918;2023-05-19T16:41:18;230.00;;;216.68;;
22768;SDS011;13001;51.968;5.918;2023-05-19T16:43:46;250.55;;;235.30;;
22768;SDS011;13001;51.968;5.918;2023-05-19T16:46:14;218.97;;;206.38;;
22768;SDS011;13001;51.968;5.918;2023-05-19T16:48:41;237.38;;;223.82;;
22768;SDS011;13001;51.968;5.918;2023-05-19T16:51:08;241.78;;;227.78;;
22768;SDS011;13001;51.968;5.918;2023-05-19T16:53:35;282.17;;;265.73;;
22768;SDS011;13001;51.968;5.918;2023-05-19T16:56:03;260.95;;;246.18;;
22768;SDS011;13001;51.968;5.918;2023-05-19T16:58:30;242.47;;;228.77;;
22768;SDS011;13001;51.968;5.918;2023-05-19T17:00:57;260.73;;;245.80;;
22768;SDS011;13001;51.968;5.918;2023-05-19T17:03:25;254.97;;;240.53;;
22768;SDS011;13001;51.968;5.918;2023-05-19T17:05:52;351.13;;;327.47;;
22768;SDS011;13001;51.968;5.918;2023-05-19T17:08:19;265.02;;;249.45;;
22768;SDS011;13001;51.968;5.918;2023-05-19T17:10:48;262.98;;;247.93;;
22768;SDS011;13001;51.968;5.918;2023-05-19T17:13:15;294.37;;;276.62;;
22768;SDS011;13001;51.968;5.918;2023-05-19T17:15:43;336.37;;;315.83;;
22768;SDS011;13001;51.968;5.918;2023-05-19T17:18:10;267.77;;;252.77;;
22768;SDS011;13001;51.968;5.918;2023-05-19T17:20:37;318.65;;;299.73;;
22768;SDS011;13001;51.968;5.918;2023-05-19T17:23:04;393.67;;;367.40;;
22768;SDS011;13001;51.968;5.918;2023-05-19T17:25:32;343.17;;;321.93;;
22768;SDS011;13001;51.968;5.918;2023-05-19T17:27:59;325.93;;;306.67;;
22768;SDS011;13001;51.968;5.918;2023-05-19T17:30:27;338.70;;;318.53;;
22768;SDS011;13001;51.968;5.918;2023-05-19T17:32:54;271.45;;;255.90;;
22768;SDS011;13001;51.968;5.918;2023-05-19T17:35:23;335.35;;;315.10;;
22768;SDS011;13001;51.968;5.918;2023-05-19T17:37:50;350.20;;;327.83;;
22768;SDS011;13001;51.968;5.918;2023-05-19T17:40:17;347.97;;;326.10;;
22768;SDS011;13001;51.968;5.918;2023-05-19T17:42:45;325.95;;;304.70;;
22768;SDS011;13001;51.968;5.918;2023-05-19T17:45:12;409.77;;;383.05;;
22768;SDS011;13001;51.968;5.918;2023-05-19T17:47:39;333.57;;;311.73;;
22768;SDS011;13001;51.968;5.918;2023-05-19T17:50:07;373.32;;;348.98;;
22768;SDS011;13001;51.968;5.918;2023-05-19T17:52:34;369.48;;;345.23;;
22768;SDS011;13001;51.968;5.918;2023-05-19T17:55:01;299.40;;;281.07;;
22768;SDS011;13001;51.968;5.918;2023-05-19T17:57:30;339.47;;;318.33;;
22768;SDS011;13001;51.968;5.918;2023-05-19T17:59:59;336.92;;;315.52;;
22768;SDS011;13001;51.968;5.918;2023-05-19T18:02:30;332.20;;;311.25;;
22768;SDS011;13001;51.968;5.918;2023-05-19T18:04:56;363.32;;;339.70;;
22768;SDS011;13001;51.968;5.918;2023-05-19T18:07:24;343.27;;;321.70;;
22768;SDS011;13001;51.968;5.918;2023-05-19T18:09:54;318.63;;;298.45;;
22768;SDS011;13001;51.968;5.918;2023-05-19T18:12:21;349.20;;;326.82;;
22768;SDS011;13001;51.968;5.918;2023-05-19T18:14:48;339.25;;;317.27;;
22768;SDS011;13001;51.968;5.918;2023-05-19T18:17:16;306.50;;;286.93;;
22768;SDS011;13001;51.968;5.918;2023-05-19T18:19:43;380.50;;;355.35;;
22768;SDS011;13001;51.968;5.918;2023-05-19T18:22:10;356.52;;;333.15;;
22768;SDS011;13001;51.968;5.918;2023-05-19T18:24:39;368.23;;;344.53;;
22768;SDS011;13001;51.968;5.918;2023-05-19T18:27:06;377.70;;;352.62;;
22768;SDS011;13001;51.968;5.918;2023-05-19T18:29:34;412.25;;;385.63;;
22768;SDS011;13001;51.968;5.918;2023-05-19T18:32:01;339.15;;;317.15;;
22768;SDS011;13001;51.968;5.918;2023-05-19T18:34:28;396.90;;;370.52;;
22768;SDS011;13001;51.968;5.918;2023-05-19T18:36:56;359.85;;;336.37;;
22768;SDS011;13001;51.968;5.918;2023-05-19T18:39:23;426.45;;;398.62;;
22768;SDS011;13001;51.968;5.918;2023-05-19T18:41:50;381.10;;;356.47;;
22768;SDS011;13001;51.968;5.918;2023-05-19T18:44:18;404.27;;;378.27;;
22768;SDS011;13001;51.968;5.918;2023-05-19T18:46:46;387.50;;;362.82;;
22768;SDS011;13001;51.968;5.918;2023-05-19T18:49:13;406.65;;;380.57;;
22768;SDS011;13001;51.968;5.918;2023-05-19T18:51:40;360.77;;;337.88;;
22768;SDS011;13001;51.968;5.918;2023-05-19T18:54:08;404.57;;;379.73;;
22768;SDS011;13001;51.968;5.918;2023-05-19T18:56:37;399.85;;;375.35;;
22768;SDS011;13001;51.968;5.918;2023-05-19T18:59:04;414.70;;;389.57;;
22768;SDS011;13001;51.968;5.918;2023-05-19T19:01:32;494.88;;;464.52;;
22768;SDS011;13001;51.968;5.918;2023-05-19T19:03:59;462.45;;;434.45;;
22768;SDS011;13001;51.968;5.918;2023-05-19T19:06:27;440.47;;;414.07;;
22768;SDS011;13001;51.968;5.918;2023-05-19T19:08:54;515.20;;;483.30;;
22768;SDS011;13001;51.968;5.918;2023-05-19T19:11:21;453.00;;;426.22;;
22768;SDS011;13001;51.968;5.918;2023-05-19T19:13:49;456.63;;;429.55;;
22768;SDS011;13001;51.968;5.918;2023-05-19T19:16:17;447.35;;;420.65;;
22768;SDS011;13001;51.968;5.918;2023-05-19T19:18:44;446.72;;;420.30;;
22768;SDS011;13001;51.968;5.918;2023-05-19T19:21:11;446.20;;;419.82;;
22768;SDS011;13001;51.968;5.918;2023-05-19T19:23:38;449.63;;;423.07;;
22768;SDS011;13001;51.968;5.918;2023-05-19T19:26:06;452.35;;;425.38;;
22768;SDS011;13001;51.968;5.918;2023-05-19T19:28:35;456.13;;;429.12;;
22768;SDS011;13001;51.968;5.918;2023-05-19T19:31:02;462.60;;;434.90;;
22768;SDS011;13001;51.968;5.918;2023-05-19T19:33:29;462.25;;;435.17;;
22768;SDS011;13001;51.968;5.918;2023-05-19T19:35:56;466.92;;;439.45;;
22768;SDS011;13001;51.968;5.918;2023-05-19T19:38:24;479.05;;;451.07;;
22768;SDS011;13001;51.968;5.918;2023-05-19T19:40:51;466.75;;;439.55;;
22768;SDS011;13001;51.968;5.918;2023-05-19T19:43:18;471.63;;;444.15;;
22768;SDS011;13001;51.968;5.918;2023-05-19T19:45:45;467.33;;;440.37;;